sensor_id;sensor_type;location;lat;lon;timestamp;temperature;humidity
44833;DHT22;30569;51.252;9.830;2023-08-06T00:02:23;16.70;99.90
44833;DHT22;30569;51.252;9.830;2023-08-06T00:04:48;16.60;99.90
44833;DHT22;30569;51.252;9.830;2023-08-06T00:07:14;16.70;99.90
44833;DHT22;30569;51.252;9.830;2023-08-06T00:12:05;16.70;99.90
44833;DHT22;30569;51.252;9.830;2023-08-06T00:14:31;16.70;99.90
44833;DHT22;30569;51.252;9.830;2023-08-06T00:16:56;16.70;99.90
44833;DHT22;30569;51.252;9.830;2023-08-06T00:19:22;16.70;99.90
44833;DHT22;30569;51.252;9.830;2023-08-06T00:21:47;16.70;99.90
44833;DHT22;30569;51.252;9.830;2023-08-06T00:24:13;16.70;99.90
44833;DHT22;30569;51.252;9.830;2023-08-06T00:26:39;16.70;99.90
44833;DHT22;30569;51.252;9.830;2023-08-06T00:29:04;16.60;99.90
44833;DHT22;30569;51.252;9.830;2023-08-06T00:31:30;16.60;99.90
44833;DHT22;30569;51.252;9.830;2023-08-06T00:33:55;16.70;99.90
44833;DHT22;30569;51.252;9.830;2023-08-06T00:36:21;16.60;99.90
44833;DHT22;30569;51.252;9.830;2023-08-06T00:38:46;16.60;99.90
44833;DHT22;30569;51.252;9.830;2023-08-06T00:41:12;16.60;99.90
44833;DHT22;30569;51.252;9.830;2023-08-06T00:43:38;16.60;99.90
44833;DHT22;30569;51.252;9.830;2023-08-06T00:46:03;16.60;99.90
44833;DHT22;30569;51.252;9.830;2023-08-06T00:48:29;16.50;99.90
44833;DHT22;30569;51.252;9.830;2023-08-06T00:50:55;16.50;99.90
44833;DHT22;30569;51.252;9.830;2023-08-06T00:53:20;16.50;99.90
44833;DHT22;30569;51.252;9.830;2023-08-06T00:55:46;16.60;99.90
44833;DHT22;30569;51.252;9.830;2023-08-06T00:58:13;16.50;99.90
44833;DHT22;30569;51.252;9.830;2023-08-06T01:00:39;16.50;99.90
44833;DHT22;30569;51.252;9.830;2023-08-06T01:03:05;16.50;99.90
44833;DHT22;30569;51.252;9.830;2023-08-06T01:05:30;16.50;99.90
44833;DHT22;30569;51.252;9.830;2023-08-06T01:08:28;16.40;99.90
44833;DHT22;30569;51.252;9.830;2023-08-06T01:11:14;16.50;99.90
44833;DHT22;30569;51.252;9.830;2023-08-06T01:13:46;16.50;99.90
44833;DHT22;30569;51.252;9.830;2023-08-06T01:16:15;16.40;99.90
44833;DHT22;30569;51.252;9.830;2023-08-06T01:18:41;16.40;99.90
44833;DHT22;30569;51.252;9.830;2023-08-06T01:21:12;16.40;99.90
44833;DHT22;30569;51.252;9.830;2023-08-06T01:23:38;16.40;99.90
44833;DHT22;30569;51.252;9.830;2023-08-06T01:26:26;16.40;99.90
44833;DHT22;30569;51.252;9.830;2023-08-06T01:29:13;16.40;99.90
44833;DHT22;30569;51.252;9.830;2023-08-06T01:31:43;16.40;99.90
44833;DHT22;30569;51.252;9.830;2023-08-06T01:34:17;16.40;99.90
44833;DHT22;30569;51.252;9.830;2023-08-06T01:36:46;16.40;99.90
44833;DHT22;30569;51.252;9.830;2023-08-06T01:39:11;16.50;99.90
44833;DHT22;30569;51.252;9.830;2023-08-06T01:41:37;16.40;99.90
44833;DHT22;30569;51.252;9.830;2023-08-06T01:44:03;16.40;99.90
44833;DHT22;30569;51.252;9.830;2023-08-06T01:46:28;16.40;99.90
44833;DHT22;30569;51.252;9.830;2023-08-06T01:48:54;16.40;99.90
44833;DHT22;30569;51.252;9.830;2023-08-06T01:51:19;16.40;99.90
44833;DHT22;30569;51.252;9.830;2023-08-06T01:53:45;16.40;99.90
44833;DHT22;30569;51.252;9.830;2023-08-06T01:56:10;16.40;99.90
44833;DHT22;30569;51.252;9.830;2023-08-06T01:58:36;16.40;99.90
44833;DHT22;30569;51.252;9.830;2023-08-06T02:01:02;16.40;99.90
44833;DHT22;30569;51.252;9.830;2023-08-06T02:03:28;16.40;99.90
44833;DHT22;30569;51.252;9.830;2023-08-06T02:05:53;16.40;99.90
44833;DHT22;30569;51.252;9.830;2023-08-06T02:08:19;16.40;99.90
44833;DHT22;30569;51.252;9.830;2023-08-06T02:10:45;16.50;99.90
44833;DHT22;30569;51.252;9.830;2023-08-06T02:13:10;16.40;99.90
44833;DHT22;30569;51.252;9.830;2023-08-06T02:15:41;16.50;99.90
44833;DHT22;30569;51.252;9.830;2023-08-06T02:20:32;16.40;99.90
44833;DHT22;30569;51.252;9.830;2023-08-06T02:22:58;16.40;99.90
44833;DHT22;30569;51.252;9.830;2023-08-06T02:25:24;16.30;99.90
44833;DHT22;30569;51.252;9.830;2023-08-06T02:27:49;16.30;99.90
44833;DHT22;30569;51.252;9.830;2023-08-06T02:30:15;16.40;99.90
44833;DHT22;30569;51.252;9.830;2023-08-06T02:32:40;16.40;99.90
44833;DHT22;30569;51.252;9.830;2023-08-06T02:35:06;16.40;99.90
44833;DHT22;30569;51.252;9.830;2023-08-06T02:37:34;16.40;99.90
44833;DHT22;30569;51.252;9.830;2023-08-06T02:39:59;16.30;99.90
44833;DHT22;30569;51.252;9.830;2023-08-06T02:42:25;16.30;99.90
44833;DHT22;30569;51.252;9.830;2023-08-06T02:44:52;16.30;99.90
44833;DHT22;30569;51.252;9.830;2023-08-06T02:47:20;16.30;99.90
44833;DHT22;30569;51.252;9.830;2023-08-06T02:49:45;16.30;99.90
44833;DHT22;30569;51.252;9.830;2023-08-06T02:52:11;16.20;99.90
44833;DHT22;30569;51.252;9.830;2023-08-06T02:54:37;16.20;99.90
44833;DHT22;30569;51.252;9.830;2023-08-06T02:57:02;16.30;99.90
44833;DHT22;30569;51.252;9.830;2023-08-06T02:59:28;16.20;99.90
44833;DHT22;30569;51.252;9.830;2023-08-06T03:01:53;16.20;99.90
44833;DHT22;30569;51.252;9.830;2023-08-06T03:04:19;16.20;99.90
44833;DHT22;30569;51.252;9.830;2023-08-06T03:06:44;16.30;99.90
44833;DHT22;30569;51.252;9.830;2023-08-06T03:09:10;16.20;99.90
44833;DHT22;30569;51.252;9.830;2023-08-06T03:11:35;16.20;99.90
44833;DHT22;30569;51.252;9.830;2023-08-06T03:14:01;16.20;99.90
44833;DHT22;30569;51.252;9.830;2023-08-06T03:16:27;16.20;99.90
44833;DHT22;30569;51.252;9.830;2023-08-06T03:18:52;16.10;99.90
44833;DHT22;30569;51.252;9.830;2023-08-06T03:21:18;16.00;99.90
44833;DHT22;30569;51.252;9.830;2023-08-06T03:23:46;16.00;99.90
44833;DHT22;30569;51.252;9.830;2023-08-06T03:26:12;15.90;99.90
44833;DHT22;30569;51.252;9.830;2023-08-06T03:28:37;15.80;99.90
44833;DHT22;30569;51.252;9.830;2023-08-06T03:31:03;15.70;99.90
44833;DHT22;30569;51.252;9.830;2023-08-06T03:33:29;15.60;99.90
44833;DHT22;30569;51.252;9.830;2023-08-06T03:35:55;15.60;99.90
44833;DHT22;30569;51.252;9.830;2023-08-06T03:38:21;15.50;99.90
44833;DHT22;30569;51.252;9.830;2023-08-06T03:40:46;15.30;99.90
44833;DHT22;30569;51.252;9.830;2023-08-06T03:43:12;15.30;99.90
44833;DHT22;30569;51.252;9.830;2023-08-06T03:45:38;15.30;99.90
44833;DHT22;30569;51.252;9.830;2023-08-06T03:48:03;15.30;99.90
44833;DHT22;30569;51.252;9.830;2023-08-06T03:50:29;15.30;99.90
44833;DHT22;30569;51.252;9.830;2023-08-06T03:52:54;15.30;99.90
44833;DHT22;30569;51.252;9.830;2023-08-06T03:55:21;15.40;99.90
44833;DHT22;30569;51.252;9.830;2023-08-06T03:57:46;15.40;99.90
44833;DHT22;30569;51.252;9.830;2023-08-06T04:00:12;15.40;99.90
44833;DHT22;30569;51.252;9.830;2023-08-06T04:02:38;15.40;99.90
44833;DHT22;30569;51.252;9.830;2023-08-06T04:05:04;15.40;99.90
44833;DHT22;30569;51.252;9.830;2023-08-06T04:07:29;15.30;99.90
44833;DHT22;30569;51.252;9.830;2023-08-06T04:09:59;15.30;99.90
44833;DHT22;30569;51.252;9.830;2023-08-06T04:12:25;15.20;99.90
44833;DHT22;30569;51.252;9.830;2023-08-06T04:14:51;15.20;99.90
44833;DHT22;30569;51.252;9.830;2023-08-06T04:17:18;15.10;99.90
44833;DHT22;30569;51.252;9.830;2023-08-06T04:19:46;15.20;99.90
44833;DHT22;30569;51.252;9.830;2023-08-06T04:22:13;15.10;99.90
44833;DHT22;30569;51.252;9.830;2023-08-06T04:24:38;15.10;99.90
44833;DHT22;30569;51.252;9.830;2023-08-06T04:27:04;15.20;99.90
44833;DHT22;30569;51.252;9.830;2023-08-06T04:29:29;15.10;99.90
44833;DHT22;30569;51.252;9.830;2023-08-06T04:31:55;15.10;99.90
44833;DHT22;30569;51.252;9.830;2023-08-06T04:34:20;15.20;99.90
44833;DHT22;30569;51.252;9.830;2023-08-06T04:36:46;15.20;99.90
44833;DHT22;30569;51.252;9.830;2023-08-06T04:39:11;15.20;99.90
44833;DHT22;30569;51.252;9.830;2023-08-06T04:41:37;15.10;99.90
44833;DHT22;30569;51.252;9.830;2023-08-06T04:44:03;15.10;99.90
44833;DHT22;30569;51.252;9.830;2023-08-06T04:46:29;15.00;99.90
44833;DHT22;30569;51.252;9.830;2023-08-06T04:48:55;14.90;99.90
44833;DHT22;30569;51.252;9.830;2023-08-06T04:51:20;14.90;99.90
44833;DHT22;30569;51.252;9.830;2023-08-06T04:53:46;14.90;99.90
44833;DHT22;30569;51.252;9.830;2023-08-06T04:56:11;14.90;99.90
44833;DHT22;30569;51.252;9.830;2023-08-06T04:58:37;14.80;99.90
44833;DHT22;30569;51.252;9.830;2023-08-06T05:01:02;14.80;99.90
44833;DHT22;30569;51.252;9.830;2023-08-06T05:03:28;14.70;99.90
44833;DHT22;30569;51.252;9.830;2023-08-06T05:05:54;14.80;99.90
44833;DHT22;30569;51.252;9.830;2023-08-06T05:08:19;14.80;99.90
44833;DHT22;30569;51.252;9.830;2023-08-06T05:10:45;14.90;99.90
44833;DHT22;30569;51.252;9.830;2023-08-06T05:13:11;14.90;99.90
44833;DHT22;30569;51.252;9.830;2023-08-06T05:15:36;14.90;99.90
44833;DHT22;30569;51.252;9.830;2023-08-06T05:20:28;15.10;99.90
44833;DHT22;30569;51.252;9.830;2023-08-06T05:22:54;15.10;99.90
44833;DHT22;30569;51.252;9.830;2023-08-06T05:25:20;15.30;99.90
44833;DHT22;30569;51.252;9.830;2023-08-06T05:27:45;15.40;99.90
44833;DHT22;30569;51.252;9.830;2023-08-06T05:30:11;15.50;99.90
44833;DHT22;30569;51.252;9.830;2023-08-06T05:32:36;15.50;99.90
44833;DHT22;30569;51.252;9.830;2023-08-06T05:35:03;15.60;99.90
44833;DHT22;30569;51.252;9.830;2023-08-06T05:37:28;15.70;99.90
44833;DHT22;30569;51.252;9.830;2023-08-06T05:39:54;15.80;99.90
44833;DHT22;30569;51.252;9.830;2023-08-06T05:42:19;15.90;99.90
44833;DHT22;30569;51.252;9.830;2023-08-06T05:44:45;15.90;99.90
44833;DHT22;30569;51.252;9.830;2023-08-06T05:47:10;16.00;99.90
44833;DHT22;30569;51.252;9.830;2023-08-06T05:49:36;16.10;99.90
44833;DHT22;30569;51.252;9.830;2023-08-06T05:52:01;16.20;99.90
44833;DHT22;30569;51.252;9.830;2023-08-06T05:54:31;16.20;99.90
44833;DHT22;30569;51.252;9.830;2023-08-06T05:56:57;16.20;99.90
44833;DHT22;30569;51.252;9.830;2023-08-06T05:59:22;16.20;99.90
44833;DHT22;30569;51.252;9.830;2023-08-06T06:01:48;16.30;99.90
44833;DHT22;30569;51.252;9.830;2023-08-06T06:04:13;16.50;99.90
44833;DHT22;30569;51.252;9.830;2023-08-06T06:06:39;16.50;99.90
44833;DHT22;30569;51.252;9.830;2023-08-06T06:09:04;16.60;99.90
44833;DHT22;30569;51.252;9.830;2023-08-06T06:11:30;16.80;99.90
44833;DHT22;30569;51.252;9.830;2023-08-06T06:13:55;16.70;99.90
44833;DHT22;30569;51.252;9.830;2023-08-06T06:16:21;16.80;99.90
44833;DHT22;30569;51.252;9.830;2023-08-06T06:18:47;16.90;99.90
44833;DHT22;30569;51.252;9.830;2023-08-06T06:21:12;17.10;99.90
44833;DHT22;30569;51.252;9.830;2023-08-06T06:23:38;17.10;99.90
44833;DHT22;30569;51.252;9.830;2023-08-06T06:26:03;17.10;99.90
44833;DHT22;30569;51.252;9.830;2023-08-06T06:28:29;17.20;99.90
44833;DHT22;30569;51.252;9.830;2023-08-06T06:31:00;17.00;99.90
44833;DHT22;30569;51.252;9.830;2023-08-06T06:33:26;16.90;99.90
44833;DHT22;30569;51.252;9.830;2023-08-06T06:35:51;16.80;99.90
44833;DHT22;30569;51.252;9.830;2023-08-06T06:38:17;17.00;99.90
44833;DHT22;30569;51.252;9.830;2023-08-06T06:40:43;17.00;99.90
44833;DHT22;30569;51.252;9.830;2023-08-06T06:43:08;17.00;99.90
44833;DHT22;30569;51.252;9.830;2023-08-06T06:45:34;17.30;99.90
44833;DHT22;30569;51.252;9.830;2023-08-06T06:48:02;17.30;99.90
44833;DHT22;30569;51.252;9.830;2023-08-06T06:50:28;16.90;99.90
44833;DHT22;30569;51.252;9.830;2023-08-06T06:52:53;16.90;99.90
44833;DHT22;30569;51.252;9.830;2023-08-06T06:55:19;16.90;99.90
44833;DHT22;30569;51.252;9.830;2023-08-06T06:57:44;17.30;99.90
44833;DHT22;30569;51.252;9.830;2023-08-06T07:00:10;17.40;99.90
44833;DHT22;30569;51.252;9.830;2023-08-06T07:05:02;17.30;99.90
44833;DHT22;30569;51.252;9.830;2023-08-06T07:07:28;17.40;99.90
44833;DHT22;30569;51.252;9.830;2023-08-06T07:09:54;17.30;99.90
44833;DHT22;30569;51.252;9.830;2023-08-06T07:12:19;17.30;99.90
44833;DHT22;30569;51.252;9.830;2023-08-06T07:14:47;17.70;99.90
44833;DHT22;30569;51.252;9.830;2023-08-06T07:17:12;17.90;99.90
44833;DHT22;30569;51.252;9.830;2023-08-06T07:19:38;17.90;99.90
44833;DHT22;30569;51.252;9.830;2023-08-06T07:24:30;18.40;99.90
44833;DHT22;30569;51.252;9.830;2023-08-06T07:29:21;18.40;99.90
44833;DHT22;30569;51.252;9.830;2023-08-06T07:31:47;18.20;99.90
44833;DHT22;30569;51.252;9.830;2023-08-06T07:34:14;18.30;99.90
44833;DHT22;30569;51.252;9.830;2023-08-06T07:36:44;18.10;99.90
44833;DHT22;30569;51.252;9.830;2023-08-06T07:39:09;18.00;99.90
44833;DHT22;30569;51.252;9.830;2023-08-06T07:41:35;18.00;99.90
44833;DHT22;30569;51.252;9.830;2023-08-06T07:44:01;18.00;99.90
44833;DHT22;30569;51.252;9.830;2023-08-06T07:46:27;18.00;99.90
44833;DHT22;30569;51.252;9.830;2023-08-06T07:48:52;17.90;99.90
44833;DHT22;30569;51.252;9.830;2023-08-06T07:51:18;18.20;99.90
44833;DHT22;30569;51.252;9.830;2023-08-06T07:53:44;18.20;99.90
44833;DHT22;30569;51.252;9.830;2023-08-06T07:56:10;18.70;99.90
44833;DHT22;30569;51.252;9.830;2023-08-06T07:58:36;18.80;99.90
44833;DHT22;30569;51.252;9.830;2023-08-06T08:01:01;19.30;99.90
44833;DHT22;30569;51.252;9.830;2023-08-06T08:03:27;19.30;99.90
44833;DHT22;30569;51.252;9.830;2023-08-06T08:05:55;19.60;99.90
44833;DHT22;30569;51.252;9.830;2023-08-06T08:08:24;19.90;99.90
44833;DHT22;30569;51.252;9.830;2023-08-06T08:10:50;19.80;99.90
44833;DHT22;30569;51.252;9.830;2023-08-06T08:13:15;19.90;99.90
44833;DHT22;30569;51.252;9.830;2023-08-06T08:15:41;19.80;99.90
44833;DHT22;30569;51.252;9.830;2023-08-06T08:18:06;20.90;99.80
44833;DHT22;30569;51.252;9.830;2023-08-06T08:20:32;20.70;99.60
44833;DHT22;30569;51.252;9.830;2023-08-06T08:22:59;20.70;99.90
44833;DHT22;30569;51.252;9.830;2023-08-06T08:25:25;21.70;98.20
44833;DHT22;30569;51.252;9.830;2023-08-06T08:27:52;21.80;97.60
44833;DHT22;30569;51.252;9.830;2023-08-06T08:30:18;22.30;95.80
44833;DHT22;30569;51.252;9.830;2023-08-06T08:32:43;22.30;96.00
44833;DHT22;30569;51.252;9.830;2023-08-06T08:35:09;22.70;95.40
44833;DHT22;30569;51.252;9.830;2023-08-06T08:37:36;21.20;95.80
44833;DHT22;30569;51.252;9.830;2023-08-06T08:40:01;20.80;97.70
44833;DHT22;30569;51.252;9.830;2023-08-06T08:42:29;20.50;97.40
44833;DHT22;30569;51.252;9.830;2023-08-06T08:44:54;20.90;97.80
44833;DHT22;30569;51.252;9.830;2023-08-06T08:47:20;21.40;97.90
44833;DHT22;30569;51.252;9.830;2023-08-06T08:49:47;22.20;96.20
44833;DHT22;30569;51.252;9.830;2023-08-06T08:52:15;22.70;91.70
44833;DHT22;30569;51.252;9.830;2023-08-06T08:54:43;23.70;92.70
44833;DHT22;30569;51.252;9.830;2023-08-06T08:57:09;23.10;93.70
44833;DHT22;30569;51.252;9.830;2023-08-06T08:59:35;23.10;93.60
44833;DHT22;30569;51.252;9.830;2023-08-06T09:02:01;23.70;93.90
44833;DHT22;30569;51.252;9.830;2023-08-06T09:04:29;24.60;91.30
44833;DHT22;30569;51.252;9.830;2023-08-06T09:06:58;25.50;90.80
44833;DHT22;30569;51.252;9.830;2023-08-06T09:09:33;25.30;87.50
44833;DHT22;30569;51.252;9.830;2023-08-06T09:12:01;24.90;88.30
44833;DHT22;30569;51.252;9.830;2023-08-06T09:14:29;24.90;89.80
44833;DHT22;30569;51.252;9.830;2023-08-06T09:16:55;24.80;88.10
44833;DHT22;30569;51.252;9.830;2023-08-06T09:19:21;24.60;90.10
44833;DHT22;30569;51.252;9.830;2023-08-06T09:21:48;23.70;89.00
44833;DHT22;30569;51.252;9.830;2023-08-06T09:24:16;23.60;90.20
44833;DHT22;30569;51.252;9.830;2023-08-06T09:26:43;23.30;91.00
44833;DHT22;30569;51.252;9.830;2023-08-06T09:29:10;23.20;90.70
44833;DHT22;30569;51.252;9.830;2023-08-06T09:31:50;22.90;90.90
44833;DHT22;30569;51.252;9.830;2023-08-06T09:34:22;22.60;92.50
44833;DHT22;30569;51.252;9.830;2023-08-06T09:36:49;22.00;92.90
44833;DHT22;30569;51.252;9.830;2023-08-06T09:39:17;22.10;93.30
44833;DHT22;30569;51.252;9.830;2023-08-06T09:41:43;21.60;93.00
44833;DHT22;30569;51.252;9.830;2023-08-06T09:44:20;21.80;93.70
44833;DHT22;30569;51.252;9.830;2023-08-06T09:46:57;22.00;92.60
44833;DHT22;30569;51.252;9.830;2023-08-06T09:49:27;25.90;87.40
44833;DHT22;30569;51.252;9.830;2023-08-06T09:51:53;25.90;83.40
44833;DHT22;30569;51.252;9.830;2023-08-06T09:54:23;26.90;85.10
44833;DHT22;30569;51.252;9.830;2023-08-06T09:56:49;30.00;79.50
44833;DHT22;30569;51.252;9.830;2023-08-06T09:59:15;29.60;74.90
44833;DHT22;30569;51.252;9.830;2023-08-06T10:01:45;30.20;72.10
44833;DHT22;30569;51.252;9.830;2023-08-06T10:04:13;29.90;75.30
44833;DHT22;30569;51.252;9.830;2023-08-06T10:06:42;30.20;71.90
44833;DHT22;30569;51.252;9.830;2023-08-06T10:09:08;29.70;72.60
44833;DHT22;30569;51.252;9.830;2023-08-06T10:11:36;29.20;75.20
44833;DHT22;30569;51.252;9.830;2023-08-06T10:14:08;28.80;73.30
44833;DHT22;30569;51.252;9.830;2023-08-06T10:16:36;27.30;78.70
44833;DHT22;30569;51.252;9.830;2023-08-06T10:19:04;27.60;75.00
44833;DHT22;30569;51.252;9.830;2023-08-06T10:21:31;25.60;76.10
44833;DHT22;30569;51.252;9.830;2023-08-06T10:23:57;25.20;78.10
44833;DHT22;30569;51.252;9.830;2023-08-06T10:26:29;24.00;85.30
44833;DHT22;30569;51.252;9.830;2023-08-06T10:28:55;23.90;86.90
44833;DHT22;30569;51.252;9.830;2023-08-06T10:32:02;22.90;86.20
44833;DHT22;30569;51.252;9.830;2023-08-06T10:34:53;22.80;88.30
44833;DHT22;30569;51.252;9.830;2023-08-06T10:37:20;22.40;89.50
44833;DHT22;30569;51.252;9.830;2023-08-06T10:39:51;22.70;90.40
44833;DHT22;30569;51.252;9.830;2023-08-06T10:42:28;22.30;90.70
44833;DHT22;30569;51.252;9.830;2023-08-06T10:45:12;23.30;90.90
44833;DHT22;30569;51.252;9.830;2023-08-06T10:47:39;21.80;91.90
44833;DHT22;30569;51.252;9.830;2023-08-06T10:50:13;23.10;89.90
44833;DHT22;30569;51.252;9.830;2023-08-06T10:52:43;22.60;89.50
44833;DHT22;30569;51.252;9.830;2023-08-06T10:55:09;22.90;90.50
44833;DHT22;30569;51.252;9.830;2023-08-06T10:57:35;24.30;88.70
44833;DHT22;30569;51.252;9.830;2023-08-06T11:00:01;23.30;86.80
44833;DHT22;30569;51.252;9.830;2023-08-06T11:02:28;22.80;88.50
44833;DHT22;30569;51.252;9.830;2023-08-06T11:04:53;22.50;88.40
44833;DHT22;30569;51.252;9.830;2023-08-06T11:07:19;23.80;90.60
44833;DHT22;30569;51.252;9.830;2023-08-06T11:09:50;22.40;90.80
44833;DHT22;30569;51.252;9.830;2023-08-06T11:12:19;21.80;90.60
44833;DHT22;30569;51.252;9.830;2023-08-06T11:14:50;21.90;90.80
44833;DHT22;30569;51.252;9.830;2023-08-06T11:17:15;21.60;90.90
44833;DHT22;30569;51.252;9.830;2023-08-06T11:19:41;21.50;91.70
44833;DHT22;30569;51.252;9.830;2023-08-06T11:22:07;21.40;91.90
44833;DHT22;30569;51.252;9.830;2023-08-06T11:31:51;22.50;91.30
44833;DHT22;30569;51.252;9.830;2023-08-06T11:36:43;22.20;92.40
44833;DHT22;30569;51.252;9.830;2023-08-06T11:39:09;22.90;92.60
44833;DHT22;30569;51.252;9.830;2023-08-06T11:41:36;22.20;92.00
44833;DHT22;30569;51.252;9.830;2023-08-06T11:44:03;22.80;92.40
44833;DHT22;30569;51.252;9.830;2023-08-06T11:46:29;24.20;93.40
44833;DHT22;30569;51.252;9.830;2023-08-06T11:48:56;23.10;91.90
44833;DHT22;30569;51.252;9.830;2023-08-06T11:51:25;22.00;90.90
44833;DHT22;30569;51.252;9.830;2023-08-06T11:53:56;24.00;92.70
44833;DHT22;30569;51.252;9.830;2023-08-06T11:56:21;23.10;91.60
44833;DHT22;30569;51.252;9.830;2023-08-06T11:58:47;21.80;92.60
44833;DHT22;30569;51.252;9.830;2023-08-06T12:01:13;21.50;91.90
44833;DHT22;30569;51.252;9.830;2023-08-06T12:03:39;21.30;93.00
44833;DHT22;30569;51.252;9.830;2023-08-06T12:06:06;21.60;93.10
44833;DHT22;30569;51.252;9.830;2023-08-06T12:08:32;21.50;90.60
44833;DHT22;30569;51.252;9.830;2023-08-06T12:13:24;22.10;91.20
44833;DHT22;30569;51.252;9.830;2023-08-06T12:18:18;22.20;87.40
44833;DHT22;30569;51.252;9.830;2023-08-06T12:20:44;22.90;89.10
44833;DHT22;30569;51.252;9.830;2023-08-06T12:25:38;22.70;86.30
44833;DHT22;30569;51.252;9.830;2023-08-06T12:30:31;23.10;90.90
44833;DHT22;30569;51.252;9.830;2023-08-06T12:32:57;23.30;90.70
44833;DHT22;30569;51.252;9.830;2023-08-06T12:35:22;22.70;87.20
44833;DHT22;30569;51.252;9.830;2023-08-06T12:40:17;23.40;90.80
44833;DHT22;30569;51.252;9.830;2023-08-06T12:42:43;24.40;90.70
44833;DHT22;30569;51.252;9.830;2023-08-06T12:45:08;23.60;91.10
44833;DHT22;30569;51.252;9.830;2023-08-06T12:47:34;23.50;90.50
44833;DHT22;30569;51.252;9.830;2023-08-06T12:54:51;23.60;89.20
44833;DHT22;30569;51.252;9.830;2023-08-06T12:57:17;25.50;91.50
44833;DHT22;30569;51.252;9.830;2023-08-06T13:02:08;23.10;90.10
44833;DHT22;30569;51.252;9.830;2023-08-06T13:04:34;24.00;91.20
44833;DHT22;30569;51.252;9.830;2023-08-06T13:06:59;22.50;91.90
44833;DHT22;30569;51.252;9.830;2023-08-06T13:09:25;21.40;92.80
44833;DHT22;30569;51.252;9.830;2023-08-06T13:11:52;20.60;93.90
44833;DHT22;30569;51.252;9.830;2023-08-06T13:14:18;20.40;94.80
44833;DHT22;30569;51.252;9.830;2023-08-06T13:16:44;21.40;95.60
44833;DHT22;30569;51.252;9.830;2023-08-06T13:19:10;23.00;95.10
44833;DHT22;30569;51.252;9.830;2023-08-06T13:24:07;21.20;95.70
44833;DHT22;30569;51.252;9.830;2023-08-06T13:26:32;22.40;95.50
44833;DHT22;30569;51.252;9.830;2023-08-06T13:28:59;21.60;94.70
44833;DHT22;30569;51.252;9.830;2023-08-06T13:31:26;20.90;94.30
44833;DHT22;30569;51.252;9.830;2023-08-06T13:33:52;20.90;93.90
44833;DHT22;30569;51.252;9.830;2023-08-06T13:36:19;20.90;95.10
44833;DHT22;30569;51.252;9.830;2023-08-06T13:38:45;21.10;94.30
44833;DHT22;30569;51.252;9.830;2023-08-06T13:41:10;21.30;93.90
44833;DHT22;30569;51.252;9.830;2023-08-06T13:43:36;23.60;94.70
44833;DHT22;30569;51.252;9.830;2023-08-06T13:46:01;20.70;94.20
44833;DHT22;30569;51.252;9.830;2023-08-06T13:48:27;20.80;95.70
44833;DHT22;30569;51.252;9.830;2023-08-06T13:50:52;21.40;94.30
44833;DHT22;30569;51.252;9.830;2023-08-06T13:53:18;22.20;94.50
44833;DHT22;30569;51.252;9.830;2023-08-06T13:55:43;21.20;94.30
44833;DHT22;30569;51.252;9.830;2023-08-06T13:58:09;21.30;93.70
44833;DHT22;30569;51.252;9.830;2023-08-06T14:00:37;21.20;94.30
44833;DHT22;30569;51.252;9.830;2023-08-06T14:03:03;21.30;94.50
44833;DHT22;30569;51.252;9.830;2023-08-06T14:05:29;22.00;93.10
44833;DHT22;30569;51.252;9.830;2023-08-06T14:07:54;22.10;93.10
44833;DHT22;30569;51.252;9.830;2023-08-06T14:10:20;22.70;91.60
44833;DHT22;30569;51.252;9.830;2023-08-06T14:12:45;22.70;91.70
44833;DHT22;30569;51.252;9.830;2023-08-06T14:15:11;24.30;90.90
44833;DHT22;30569;51.252;9.830;2023-08-06T14:17:37;24.40;94.10
44833;DHT22;30569;51.252;9.830;2023-08-06T14:20:03;22.90;90.20
44833;DHT22;30569;51.252;9.830;2023-08-06T14:22:30;22.50;90.90
44833;DHT22;30569;51.252;9.830;2023-08-06T14:24:57;22.50;91.30
44833;DHT22;30569;51.252;9.830;2023-08-06T14:27:23;22.40;89.80
44833;DHT22;30569;51.252;9.830;2023-08-06T14:29:48;22.20;90.00
44833;DHT22;30569;51.252;9.830;2023-08-06T14:32:14;22.40;92.00
44833;DHT22;30569;51.252;9.830;2023-08-06T14:34:43;22.10;90.30
44833;DHT22;30569;51.252;9.830;2023-08-06T14:37:10;22.20;91.60
44833;DHT22;30569;51.252;9.830;2023-08-06T14:39:35;22.30;90.20
44833;DHT22;30569;51.252;9.830;2023-08-06T14:42:01;22.10;89.10
44833;DHT22;30569;51.252;9.830;2023-08-06T14:44:27;22.10;90.60
44833;DHT22;30569;51.252;9.830;2023-08-06T14:46:53;21.90;91.00
44833;DHT22;30569;51.252;9.830;2023-08-06T14:49:18;21.70;92.10
44833;DHT22;30569;51.252;9.830;2023-08-06T14:51:44;21.50;92.70
44833;DHT22;30569;51.252;9.830;2023-08-06T14:54:09;22.20;93.60
44833;DHT22;30569;51.252;9.830;2023-08-06T14:56:35;22.40;93.20
44833;DHT22;30569;51.252;9.830;2023-08-06T14:59:00;20.60;94.50
44833;DHT22;30569;51.252;9.830;2023-08-06T15:01:26;20.30;95.00
44833;DHT22;30569;51.252;9.830;2023-08-06T15:03:51;20.40;95.40
44833;DHT22;30569;51.252;9.830;2023-08-06T15:06:17;20.40;95.70
44833;DHT22;30569;51.252;9.830;2023-08-06T15:08:42;20.10;97.10
44833;DHT22;30569;51.252;9.830;2023-08-06T15:11:10;19.40;99.90
44833;DHT22;30569;51.252;9.830;2023-08-06T15:13:36;19.40;99.90
44833;DHT22;30569;51.252;9.830;2023-08-06T15:16:01;19.50;99.90
44833;DHT22;30569;51.252;9.830;2023-08-06T15:18:27;19.60;99.90
44833;DHT22;30569;51.252;9.830;2023-08-06T15:20:53;19.40;99.90
44833;DHT22;30569;51.252;9.830;2023-08-06T15:23:18;19.30;99.90
44833;DHT22;30569;51.252;9.830;2023-08-06T15:25:44;18.50;99.90
44833;DHT22;30569;51.252;9.830;2023-08-06T15:28:10;18.50;99.90
44833;DHT22;30569;51.252;9.830;2023-08-06T15:30:36;18.40;99.90
44833;DHT22;30569;51.252;9.830;2023-08-06T15:33:02;18.40;99.90
44833;DHT22;30569;51.252;9.830;2023-08-06T15:35:27;18.60;99.90
44833;DHT22;30569;51.252;9.830;2023-08-06T15:37:53;18.80;99.90
44833;DHT22;30569;51.252;9.830;2023-08-06T15:40:18;19.00;99.90
44833;DHT22;30569;51.252;9.830;2023-08-06T15:42:44;18.90;99.90
44833;DHT22;30569;51.252;9.830;2023-08-06T15:45:10;19.00;99.90
44833;DHT22;30569;51.252;9.830;2023-08-06T15:47:35;19.10;99.90
44833;DHT22;30569;51.252;9.830;2023-08-06T15:50:07;19.10;99.90
44833;DHT22;30569;51.252;9.830;2023-08-06T15:52:33;19.10;99.90
44833;DHT22;30569;51.252;9.830;2023-08-06T15:57:31;18.90;99.90
44833;DHT22;30569;51.252;9.830;2023-08-06T15:59:56;18.40;99.90
44833;DHT22;30569;51.252;9.830;2023-08-06T16:02:22;18.20;99.90
44833;DHT22;30569;51.252;9.830;2023-08-06T16:04:49;18.10;99.90
44833;DHT22;30569;51.252;9.830;2023-08-06T16:07:15;18.40;99.90
44833;DHT22;30569;51.252;9.830;2023-08-06T16:09:40;18.70;99.90
44833;DHT22;30569;51.252;9.830;2023-08-06T16:12:06;18.90;99.90
44833;DHT22;30569;51.252;9.830;2023-08-06T16:14:32;19.00;99.90
44833;DHT22;30569;51.252;9.830;2023-08-06T16:16:57;19.10;99.90